Peerless, Indiana
Current Conditions -  °F | °C
As of 11:53 PM on Saturday 22 Nov 2014 (Local Time) from KBMG Reporting Station
Overcast Overcast  
Wind Chill: 55°   Ceiling: 5500
Heat Index: 55°   Visibility: 10mi
Dew Point: 35°   Wind: 8mph
Humidity: 47%   Direction: 180°S
Pressure: 29.99"   Gusts: NA
Location:  38.8737°N, 86.4563°W
Report Text: KBMG 230453Z 18007KT 10SM OVC055 13/02 A2999 RMK AO2 RAB10E20 SLP156 P0000 T01280017 401440000
Loading
Personal Weather Stations






























Interactive Weather Map New forecast layout! Learn more

10-Day Weather Forecast

Advertisements
Track Severe Weather on mobile